Time;durP1;ratioP1;P1;durP2;ratioP2;P2;SDS_P1;SDS_P2;PMS_P1;PMS_P2;Temp;Humidity;BMP_temperature;BMP_pressure;BME280_temperature;BME280_humidity;BME280_pressure;Samples;Min_cycle;Max_cycle;Signal;HPM_P1;HPM_P2
2022/07/24 00:02:20;;;;;;;20.70;19.42;;;24.00;51.80;;;;;;5050189;28;20044;-81
2022/07/24 00:04:46;;;;;;;21.83;20.67;;;24.00;52.00;;;;;;5049023;28;20044;-81
2022/07/24 00:07:12;;;;;;;23.25;22.05;;;24.00;52.10;;;;;;5050846;28;20032;-81
2022/07/24 00:09:38;;;;;;;22.13;20.92;;;24.00;52.20;;;;;;5054015;28;20029;-81
2022/07/24 00:12:05;;;;;;;22.50;21.27;;;23.90;52.50;;;;;;5054876;28;20033;-81
2022/07/24 00:14:31;;;;;;;23.10;21.83;;;23.80;52.60;;;;;;5037145;28;20040;-81
2022/07/24 00:16:57;;;;;;;24.45;23.05;;;23.80;52.80;;;;;;5052908;28;20021;-81
2022/07/24 00:19:24;;;;;;;21.48;20.15;;;23.80;52.80;;;;;;5036444;28;20036;-81
2022/07/24 00:21:50;;;;;;;20.33;19.30;;;23.80;53.00;;;;;;5054572;28;20044;-81
2022/07/24 00:24:16;;;;;;;20.20;18.98;;;23.80;53.20;;;;;;5054454;28;20056;-81
2022/07/24 00:26:42;;;;;;;21.55;20.35;;;23.70;53.30;;;;;;5053037;28;20017;-81
2022/07/24 00:29:08;;;;;;;22.83;21.40;;;23.70;53.50;;;;;;5054682;28;20029;-81
2022/07/24 00:31:34;;;;;;;30.63;28.88;;;23.60;53.50;;;;;;5053883;28;20021;-81
2022/07/24 00:34:03;;;;;;;25.65;23.98;;;23.60;53.80;;;;;;5054291;28;20044;-81
2022/07/24 00:36:29;;;;;;;29.92;28.42;;;23.60;53.90;;;;;;5053191;28;20025;-81
2022/07/24 00:38:56;;;;;;;30.67;29.08;;;23.50;54.00;;;;;;5043712;28;20387;-81
2022/07/24 00:41:22;;;;;;;33.10;31.20;;;23.50;54.10;;;;;;5033058;28;20044;-81
2022/07/24 00:44:03;;;;;;;32.80;31.13;;;23.40;54.30;;;;;;5040656;28;20043;-81
2022/07/24 00:46:29;;;;;;;27.75;26.23;;;23.40;54.60;;;;;;5053500;28;20064;-81
2022/07/24 00:48:55;;;;;;;22.40;21.08;;;23.30;54.70;;;;;;5053847;28;20032;-81
2022/07/24 00:51:21;;;;;;;21.63;20.38;;;23.30;54.60;;;;;;5052885;28;20036;-80
2022/07/24 00:53:47;;;;;;;23.35;22.05;;;23.30;54.80;;;;;;5036288;28;20025;-81
2022/07/24 00:56:13;;;;;;;22.48;21.00;;;23.30;54.70;;;;;;5035990;28;20384;-81
2022/07/24 00:58:39;;;;;;;22.05;20.75;;;23.20;54.60;;;;;;5052837;28;20029;-81
2022/07/24 01:01:05;;;;;;;22.40;21.15;;;23.20;54.80;;;;;;5053484;28;20029;-81
2022/07/24 01:03:32;;;;;;;21.85;20.55;;;23.10;54.90;;;;;;5052489;28;20044;-81
2022/07/24 01:05:58;;;;;;;21.58;20.35;;;23.10;55.60;;;;;;5052841;28;20025;-81
2022/07/24 01:08:24;;;;;;;21.05;19.75;;;23.10;55.10;;;;;;5053917;28;20040;-81
2022/07/24 01:10:50;;;;;;;20.55;18.95;;;23.10;55.10;;;;;;5035573;28;20379;-81
2022/07/24 01:13:16;;;;;;;19.25;18.25;;;23.10;55.30;;;;;;5053833;28;20032;-81
2022/07/24 01:15:42;;;;;;;20.45;19.05;;;23.00;55.10;;;;;;5053485;28;20407;-81
2022/07/24 01:18:08;;;;;;;21.33;20.10;;;23.00;55.30;;;;;;5052230;28;20471;-81
2022/07/24 01:20:36;;;;;;;20.58;19.38;;;23.00;55.40;;;;;;5051554;28;20036;-81
2022/07/24 01:23:03;;;;;;;19.63;18.23;;;22.90;55.40;;;;;;5035794;28;20041;-81
2022/07/24 01:25:29;;;;;;;22.23;21.05;;;22.90;55.50;;;;;;5035620;28;20051;-81
2022/07/24 01:27:55;;;;;;;19.67;18.58;;;22.90;55.50;;;;;;5019251;28;20033;-81
2022/07/24 01:30:21;;;;;;;19.15;18.08;;;22.80;55.50;;;;;;5052827;28;20037;-81
2022/07/24 01:32:47;;;;;;;19.52;18.33;;;22.80;55.70;;;;;;5053412;28;20401;-81
2022/07/24 01:35:13;;;;;;;20.45;19.35;;;22.80;55.90;;;;;;5051935;28;20470;-81
2022/07/24 01:37:39;;;;;;;21.92;20.73;;;22.80;56.00;;;;;;5053480;28;20017;-81
2022/07/24 01:40:06;;;;;;;25.63;24.17;;;22.80;56.00;;;;;;5032802;28;20060;-81
2022/07/24 01:42:32;;;;;;;22.85;21.50;;;22.70;56.10;;;;;;5031846;28;20503;-81
2022/07/24 01:44:58;;;;;;;26.15;24.67;;;22.60;56.30;;;;;;5047805;28;20048;-81
2022/07/24 01:47:24;;;;;;;25.50;24.15;;;22.60;56.20;;;;;;5052653;28;20037;-81
2022/07/24 01:49:50;;;;;;;26.27;24.77;;;22.60;56.50;;;;;;5051677;28;20387;-81
2022/07/24 01:52:16;;;;;;;26.83;25.48;;;22.60;56.60;;;;;;5052860;28;20028;-81
2022/07/24 01:54:42;;;;;;;27.55;26.13;;;22.50;56.70;;;;;;5052645;28;20048;-81
2022/07/24 01:57:08;;;;;;;27.10;25.60;;;22.40;56.80;;;;;;5052110;28;20029;-81
2022/07/24 01:59:34;;;;;;;23.13;21.88;;;22.40;57.00;;;;;;5051695;28;20029;-81
2022/07/24 02:02:01;;;;;;;23.55;22.25;;;22.30;57.30;;;;;;5051953;28;20036;-81
2022/07/24 02:04:27;;;;;;;24.25;22.77;;;22.30;57.40;;;;;;5052579;28;20491;-82
2022/07/24 02:06:53;;;;;;;25.52;24.05;;;22.30;57.50;;;;;;5052939;28;20029;-81
2022/07/24 02:09:19;;;;;;;26.67;25.23;;;22.20;57.50;;;;;;5051207;28;20037;-81
2022/07/24 02:11:45;;;;;;;28.80;27.20;;;22.20;57.70;;;;;;5052395;28;20025;-81
2022/07/24 02:14:11;;;;;;;25.77;24.27;;;22.20;57.60;;;;;;5034473;28;20048;-80
2022/07/24 02:16:37;;;;;;;36.00;33.97;;;22.10;57.80;;;;;;5052087;28;20098;-81
2022/07/24 02:19:03;;;;;;;37.00;35.20;;;22.10;57.80;;;;;;5050938;28;20124;-81
2022/07/24 02:21:30;;;;;;;38.83;36.63;;;22.10;57.80;;;;;;5034626;28;20506;-80
2022/07/24 02:23:56;;;;;;;39.85;37.72;;;22.10;58.10;;;;;;5052058;28;20049;-81
2022/07/24 02:26:22;;;;;;;34.45;32.45;;;22.00;58.30;;;;;;5052657;28;20025;-80
2022/07/24 02:28:48;;;;;;;32.85;31.15;;;21.90;58.60;;;;;;5051069;28;20386;-81
2022/07/24 02:31:15;;;;;;;36.83;34.72;;;21.90;58.80;;;;;;5033830;28;20033;-80
2022/07/24 02:33:41;;;;;;;33.50;31.60;;;21.80;58.90;;;;;;5050424;28;20044;-81
2022/07/24 02:36:07;;;;;;;28.13;26.52;;;21.80;58.80;;;;;;5052038;28;20039;-80
2022/07/24 02:38:33;;;;;;;29.67;28.00;;;21.80;59.10;;;;;;5045772;28;20028;-80
2022/07/24 02:40:59;;;;;;;31.80;29.73;;;21.80;59.00;;;;;;5051951;28;20066;-81
2022/07/24 02:43:25;;;;;;;32.67;30.95;;;21.80;59.10;;;;;;5047208;28;20464;-80
2022/07/24 02:45:52;;;;;;;31.42;29.73;;;21.80;59.40;;;;;;5044594;28;20056;-81
2022/07/24 02:48:18;;;;;;;29.20;27.67;;;21.80;59.50;;;;;;5050522;28;20410;-80
2022/07/24 02:50:44;;;;;;;26.45;24.95;;;21.70;59.80;;;;;;5051608;28;20044;-80
2022/07/24 02:53:10;;;;;;;29.90;28.27;;;21.70;59.90;;;;;;5050346;28;20024;-81
2022/07/24 02:55:36;;;;;;;27.75;26.08;;;21.70;59.80;;;;;;5050726;28;20017;-81
2022/07/24 02:58:03;;;;;;;27.40;25.90;;;21.60;60.30;;;;;;5050501;28;20036;-81
2022/07/24 03:00:29;;;;;;;28.55;26.95;;;21.60;60.50;;;;;;5050003;28;20029;-81
2022/07/24 03:02:55;;;;;;;27.02;25.33;;;21.50;60.80;;;;;;5051618;28;20025;-81
2022/07/24 03:05:21;;;;;;;27.23;25.25;;;21.60;60.70;;;;;;5050293;28;20048;-81
2022/07/24 03:07:48;;;;;;;26.83;25.42;;;21.50;60.80;;;;;;5033440;28;20041;-81
2022/07/24 03:10:14;;;;;;;29.75;27.85;;;21.60;60.80;;;;;;5050087;28;20025;-81
2022/07/24 03:12:40;;;;;;;27.98;26.27;;;21.60;60.80;;;;;;5051372;28;20021;-80
2022/07/24 03:15:07;;;;;;;30.70;28.90;;;21.60;60.60;;;;;;5049843;28;20036;-80
2022/07/24 03:17:33;;;;;;;29.25;27.58;;;21.60;60.60;;;;;;5051393;28;20013;-81
2022/07/24 03:19:59;;;;;;;31.90;30.15;;;21.60;60.90;;;;;;5051441;28;20387;-81
2022/07/24 03:22:25;;;;;;;36.92;34.95;;;21.60;61.10;;;;;;5049481;28;20091;-80
2022/07/24 03:24:51;;;;;;;30.90;29.30;;;21.60;61.20;;;;;;5050041;28;20399;-81
2022/07/24 03:27:18;;;;;;;34.13;31.55;;;21.50;61.30;;;;;;5050192;28;20032;-80
2022/07/24 03:29:44;;;;;;;35.38;33.20;;;21.50;61.40;;;;;;5049825;28;20068;-80
2022/07/24 03:32:10;;;;;;;35.65;33.75;;;21.50;61.70;;;;;;5050594;28;20032;-80
2022/07/24 03:34:36;;;;;;;32.22;30.33;;;21.50;61.70;;;;;;5049952;28;20032;-81
2022/07/24 03:37:02;;;;;;;31.08;29.27;;;21.40;62.00;;;;;;5050588;28;20032;-81
2022/07/24 03:39:28;;;;;;;30.30;28.38;;;21.30;62.20;;;;;;5049710;28;20066;-80
2022/07/24 03:41:54;;;;;;;28.73;27.05;;;21.30;62.40;;;;;;5051138;28;20487;-81
2022/07/24 03:44:20;;;;;;;30.17;28.42;;;21.30;62.50;;;;;;5040060;28;20041;-80
2022/07/24 03:46:46;;;;;;;29.70;27.83;;;21.30;62.80;;;;;;5050430;28;20056;-81
2022/07/24 03:49:12;;;;;;;24.52;23.10;;;21.30;62.60;;;;;;5050943;28;20029;-80
2022/07/24 03:51:38;;;;;;;30.48;28.83;;;21.30;62.80;;;;;;5050448;28;20383;-80
2022/07/24 03:54:05;;;;;;;29.50;27.92;;;21.20;63.00;;;;;;5049632;28;20036;-80
2022/07/24 03:56:31;;;;;;;25.58;23.73;;;21.20;63.50;;;;;;5049774;28;20025;-80
2022/07/24 03:58:57;;;;;;;25.08;23.67;;;21.10;63.40;;;;;;5050927;28;20468;-80
2022/07/24 04:01:23;;;;;;;25.40;24.00;;;21.10;63.60;;;;;;5049260;28;20506;-81
2022/07/24 04:03:49;;;;;;;23.95;22.65;;;21.00;63.50;;;;;;5049688;28;20044;-80
2022/07/24 04:06:15;;;;;;;24.63;23.13;;;21.10;63.70;;;;;;5050231;28;20052;-81
2022/07/24 04:08:41;;;;;;;24.75;23.15;;;21.00;63.90;;;;;;5049727;28;20025;-80
2022/07/24 04:11:08;;;;;;;23.25;21.75;;;20.90;64.00;;;;;;5048412;28;20025;-80
2022/07/24 04:13:34;;;;;;;23.83;22.42;;;20.90;64.10;;;;;;5049590;28;20036;-80
2022/07/24 04:16:00;;;;;;;22.92;21.63;;;20.90;64.20;;;;;;5049219;28;20675;-81
2022/07/24 04:18:26;;;;;;;22.88;21.60;;;20.90;64.40;;;;;;5049109;28;20471;-80
2022/07/24 04:20:52;;;;;;;22.75;21.27;;;20.80;64.40;;;;;;5032633;28;20395;-80
2022/07/24 04:23:18;;;;;;;23.00;21.70;;;20.80;64.40;;;;;;5050431;28;20408;-81
2022/07/24 04:25:45;;;;;;;22.13;20.73;;;20.80;64.30;;;;;;5032496;28;20041;-81
2022/07/24 04:28:11;;;;;;;22.90;21.45;;;20.80;64.20;;;;;;5050734;28;20043;-80
2022/07/24 04:30:37;;;;;;;23.77;22.48;;;20.80;64.20;;;;;;5050198;28;20033;-81
2022/07/24 04:33:03;;;;;;;21.92;20.52;;;20.90;64.10;;;;;;5050216;28;20048;-80
2022/07/24 04:35:29;;;;;;;22.08;20.77;;;20.90;64.10;;;;;;5050452;28;20497;-80
2022/07/24 04:37:55;;;;;;;22.00;20.80;;;20.80;64.40;;;;;;5048946;28;20036;-81
2022/07/24 04:40:21;;;;;;;22.75;21.25;;;20.80;64.40;;;;;;5049130;28;20037;-80
2022/07/24 04:42:47;;;;;;;21.45;20.15;;;20.80;64.70;;;;;;5032492;28;20037;-80
2022/07/24 04:45:13;;;;;;;22.35;21.02;;;20.70;64.80;;;;;;5039318;28;20097;-80
2022/07/24 04:47:39;;;;;;;22.65;21.30;;;20.70;64.80;;;;;;5050146;28;20025;-80
2022/07/24 04:50:06;;;;;;;22.33;21.02;;;20.70;64.90;;;;;;5049190;28;20025;-80
2022/07/24 04:52:32;;;;;;;22.00;20.60;;;20.70;65.20;;;;;;5050259;28;20025;-80
2022/07/24 04:54:58;;;;;;;22.20;20.92;;;20.70;65.10;;;;;;5050747;28;20490;-80
2022/07/24 04:57:25;;;;;;;22.75;21.45;;;20.60;65.20;;;;;;5054121;28;20041;-81
2022/07/24 04:59:51;;;;;;;21.02;19.83;;;20.60;65.20;;;;;;5052609;28;20391;-80
2022/07/24 05:02:17;;;;;;;21.52;20.30;;;20.60;65.10;;;;;;5052991;28;20033;-80
2022/07/24 05:04:43;;;;;;;21.42;20.23;;;20.60;65.30;;;;;;5053880;28;20033;-80
2022/07/24 05:07:09;;;;;;;21.33;20.23;;;20.60;65.50;;;;;;5053944;28;20021;-80
2022/07/24 05:09:35;;;;;;;21.20;19.90;;;20.60;65.70;;;;;;5035715;28;20033;-81
2022/07/24 05:12:02;;;;;;;20.75;19.38;;;20.60;65.70;;;;;;5035893;28;20922;-81
2022/07/24 05:14:28;;;;;;;21.88;20.50;;;20.60;65.60;;;;;;5052509;28;20055;-80
2022/07/24 05:16:54;;;;;;;22.10;20.27;;;20.60;65.70;;;;;;5052819;28;20029;-80
2022/07/24 05:19:20;;;;;;;22.42;21.02;;;20.70;65.70;;;;;;5053615;28;20586;-81
2022/07/24 05:21:46;;;;;;;23.08;21.73;;;20.70;65.70;;;;;;5053378;28;20029;-81
2022/07/24 05:24:12;;;;;;;23.98;22.60;;;20.80;66.20;;;;;;5051963;28;20534;-81
2022/07/24 05:26:38;;;;;;;28.17;26.48;;;20.90;66.90;;;;;;5052160;28;20036;-81
2022/07/24 05:29:06;;;;;;;26.00;24.52;;;21.00;66.60;;;;;;5053736;28;20048;-81
2022/07/24 05:31:33;;;;;;;23.40;22.08;;;21.30;66.60;;;;;;5051250;28;20036;-81
2022/07/24 05:33:59;;;;;;;26.50;25.10;;;21.50;66.30;;;;;;5052315;28;20037;-81
2022/07/24 05:36:25;;;;;;;28.15;26.52;;;21.70;65.90;;;;;;5051986;28;20032;-81
2022/07/24 05:38:51;;;;;;;30.35;28.42;;;21.80;65.00;;;;;;5052766;28;20036;-82
2022/07/24 05:41:17;;;;;;;30.90;29.13;;;21.90;64.60;;;;;;5053086;28;20021;-81
2022/07/24 05:43:43;;;;;;;30.05;28.25;;;22.00;65.00;;;;;;5047454;28;20143;-81
2022/07/24 05:46:09;;;;;;;31.27;29.48;;;22.30;63.50;;;;;;5047891;28;20052;-81
2022/07/24 05:48:35;;;;;;;31.40;29.60;;;22.50;62.90;;;;;;5051716;28;20032;-81
2022/07/24 05:51:01;;;;;;;32.35;30.48;;;22.60;62.20;;;;;;5051633;28;20029;-81
2022/07/24 05:53:27;;;;;;;33.28;31.42;;;22.80;61.90;;;;;;5051740;28;20036;-81
2022/07/24 05:55:53;;;;;;;29.92;27.95;;;23.00;61.20;;;;;;5052758;28;20033;-81
2022/07/24 05:58:20;;;;;;;27.45;25.90;;;23.10;60.80;;;;;;5051772;28;20039;-81
2022/07/24 06:00:46;;;;;;;30.20;28.55;;;23.20;60.50;;;;;;5050746;28;20025;-81
2022/07/24 06:03:12;;;;;;;27.88;26.25;;;23.40;60.30;;;;;;5051567;28;20069;-81
2022/07/24 06:05:38;;;;;;;29.60;27.90;;;23.50;60.00;;;;;;5051060;28;20047;-81
2022/07/24 06:08:05;;;;;;;29.40;27.63;;;23.70;59.50;;;;;;5052574;28;20036;-81
2022/07/24 06:10:31;;;;;;;28.17;26.58;;;23.80;59.10;;;;;;5051411;28;20044;-82
2022/07/24 06:12:58;;;;;;;31.15;29.50;;;23.90;59.00;;;;;;5050535;28;20052;-81
2022/07/24 06:15:24;;;;;;;27.67;26.17;;;24.00;58.30;;;;;;5050566;28;20494;-82
2022/07/24 06:17:50;;;;;;;29.10;27.58;;;24.00;57.50;;;;;;5051394;28;20028;-82
2022/07/24 06:20:16;;;;;;;29.10;27.25;;;23.90;57.60;;;;;;5034481;28;20052;-81
2022/07/24 06:22:43;;;;;;;25.77;24.27;;;23.90;57.40;;;;;;5052774;28;20041;-81
2022/07/24 06:25:10;;;;;;;24.90;23.50;;;23.90;57.50;;;;;;5052271;28;20052;-82
2022/07/24 06:27:42;;;;;;;24.80;23.50;;;23.90;57.30;;;;;;5052560;28;20514;-82
2022/07/24 06:30:15;;;;;;;26.30;24.80;;;23.90;57.10;;;;;;5050672;28;20029;-82
2022/07/24 06:32:41;;;;;;;26.00;24.60;;;23.90;57.30;;;;;;5050105;28;20032;-81
2022/07/24 06:35:08;;;;;;;27.85;26.25;;;24.00;57.30;;;;;;5034129;28;20044;-82
2022/07/24 06:37:34;;;;;;;27.63;26.15;;;24.10;57.00;;;;;;5051979;28;20032;-82
2022/07/24 06:40:00;;;;;;;26.00;24.67;;;24.20;57.20;;;;;;5050668;28;20040;-82
2022/07/24 06:42:26;;;;;;;25.60;24.13;;;24.20;56.50;;;;;;5051960;28;20040;-82
2022/07/24 06:44:53;;;;;;;27.45;25.95;;;24.30;56.80;;;;;;5039660;28;20041;-82
2022/07/24 06:47:19;;;;;;;29.35;27.75;;;24.30;56.80;;;;;;5051551;28;20037;-82
2022/07/24 06:49:45;;;;;;;27.77;26.08;;;24.40;56.50;;;;;;5051823;28;20383;-82
2022/07/24 06:52:11;;;;;;;29.35;27.65;;;24.60;56.60;;;;;;5050830;28;20025;-82
2022/07/24 06:54:37;;;;;;;30.10;28.40;;;24.70;55.80;;;;;;5051932;28;20032;-82
2022/07/24 06:57:03;;;;;;;28.20;26.70;;;24.80;56.00;;;;;;5050347;28;20044;-82
2022/07/24 06:59:29;;;;;;;28.92;27.33;;;24.90;55.40;;;;;;5050099;28;20047;-83
2022/07/24 07:01:56;;;;;;;30.30;28.30;;;24.90;55.60;;;;;;5050209;28;20482;-82
2022/07/24 07:04:22;;;;;;;31.27;29.50;;;24.90;55.40;;;;;;5051388;28;20483;-82
2022/07/24 07:06:48;;;;;;;30.00;28.30;;;25.00;55.70;;;;;;5051635;28;20040;-82
2022/07/24 07:09:14;;;;;;;28.73;27.23;;;25.10;55.40;;;;;;5050423;28;20032;-82
2022/07/24 07:11:40;;;;;;;34.00;32.10;;;25.20;55.20;;;;;;5051326;28;20021;-82
2022/07/24 07:14:06;;;;;;;36.45;34.45;;;25.30;54.80;;;;;;5051118;28;20032;-82
2022/07/24 07:16:32;;;;;;;38.58;36.58;;;25.40;54.80;;;;;;5049880;28;20029;-82
2022/07/24 07:18:58;;;;;;;34.20;32.30;;;25.50;54.50;;;;;;5049525;28;20116;-82
2022/07/24 07:21:25;;;;;;;31.75;30.05;;;25.50;53.70;;;;;;5049767;28;20041;-82
2022/07/24 07:23:52;;;;;;;30.15;28.33;;;25.50;53.90;;;;;;5051427;28;20353;-82
2022/07/24 07:26:18;;;;;;;29.85;28.33;;;25.30;53.80;;;;;;5051150;28;20489;-82
2022/07/24 07:28:44;;;;;;;29.45;27.95;;;25.30;54.30;;;;;;5050869;28;20033;-82
2022/07/24 07:31:10;;;;;;;33.65;31.75;;;25.30;54.00;;;;;;5050791;28;20051;-82
2022/07/24 07:33:37;;;;;;;29.42;27.63;;;25.50;53.90;;;;;;5049826;28;20407;-82
2022/07/24 07:36:03;;;;;;;32.25;30.45;;;25.30;53.80;;;;;;5051150;28;20032;-81
2022/07/24 07:38:29;;;;;;;30.88;29.27;;;25.30;54.30;;;;;;5044331;28;20361;-82
2022/07/24 07:40:55;;;;;;;34.13;32.30;;;25.50;53.80;;;;;;5031141;28;20033;-82
2022/07/24 07:43:21;;;;;;;37.10;34.88;;;25.70;54.00;;;;;;5033810;28;20483;-82
2022/07/24 07:45:47;;;;;;;32.83;31.15;;;25.90;53.40;;;;;;5032510;28;20044;-82
2022/07/24 07:48:16;;;;;;;37.90;35.65;;;25.90;53.20;;;;;;5017072;28;20056;-84
2022/07/24 07:50:42;;;;;;;39.05;37.00;;;25.90;53.40;;;;;;5033114;28;20040;-83
2022/07/24 07:53:08;;;;;;;37.90;35.90;;;25.90;53.50;;;;;;5051372;28;20036;-83
2022/07/24 07:55:34;;;;;;;39.50;37.40;;;26.00;53.30;;;;;;5033416;28;20025;-83
2022/07/24 07:58:01;;;;;;;37.67;35.67;;;26.10;53.30;;;;;;5050631;28;20029;-83
2022/07/24 08:00:27;;;;;;;35.53;33.70;;;26.30;52.60;;;;;;5049102;28;20086;-84
2022/07/24 08:02:53;;;;;;;36.25;34.35;;;26.30;52.60;;;;;;5051018;28;20044;-83
2022/07/24 08:05:19;;;;;;;34.08;32.17;;;26.30;52.80;;;;;;5050943;28;20048;-83
2022/07/24 08:07:45;;;;;;;34.28;32.03;;;26.50;52.50;;;;;;5049676;28;20032;-83
2022/07/24 08:10:12;;;;;;;35.75;33.85;;;26.60;52.40;;;;;;5049498;28;20525;-83
2022/07/24 08:12:38;;;;;;;34.80;33.03;;;26.80;52.60;;;;;;5050384;28;20029;-84
2022/07/24 08:15:04;;;;;;;45.30;43.03;;;27.00;52.00;;;;;;5032087;28;20037;-83
2022/07/24 08:17:30;;;;;;;32.17;30.27;;;27.10;51.70;;;;;;5032603;28;20040;-83
2022/07/24 08:19:57;;;;;;;38.30;36.10;;;27.00;51.80;;;;;;5033085;28;20036;-83
2022/07/24 08:22:23;;;;;;;72.72;69.05;;;27.00;52.40;;;;;;5049286;28;20041;-83
2022/07/24 08:24:49;;;;;;;60.22;57.00;;;27.20;52.50;;;;;;5050749;28;20029;-83
2022/07/24 08:27:15;;;;;;;73.53;69.82;;;27.40;51.20;;;;;;5050136;28;20037;-83
2022/07/24 08:29:41;;;;;;;65.40;61.83;;;27.60;51.40;;;;;;5051122;28;20565;-84
2022/07/24 08:32:07;;;;;;;82.10;77.97;;;27.80;51.10;;;;;;5054108;28;20048;-84
2022/07/24 08:34:34;;;;;;;69.88;66.43;;;28.00;50.10;;;;;;5053290;28;20634;-84
2022/07/24 08:37:00;;;;;;;1999.90;999.90;;;28.20;50.30;;;;;;5054932;28;20506;-84
2022/07/24 08:39:26;;;;;;;57.08;54.08;;;28.60;49.60;;;;;;5037862;28;20041;-84
2022/07/24 08:41:52;;;;;;;58.35;55.45;;;28.60;46.80;;;;;;5033472;28;20033;-84
2022/07/24 08:44:18;;;;;;;46.38;44.10;;;28.50;48.00;;;;;;5043462;28;20047;-84
2022/07/24 08:46:44;;;;;;;48.17;45.72;;;28.40;45.90;;;;;;5052600;28;20040;-83
2022/07/24 08:49:12;;;;;;;48.55;45.95;;;28.50;45.80;;;;;;5053149;28;20028;-84
2022/07/24 08:51:39;;;;;;;48.15;45.63;;;28.30;45.90;;;;;;5054288;28;20036;-84
2022/07/24 08:54:06;;;;;;;52.30;49.67;;;28.40;46.90;;;;;;5036294;28;20025;-84
2022/07/24 08:56:36;;;;;;;49.55;47.05;;;28.60;46.00;;;;;;5036311;28;20033;-84
2022/07/24 08:59:03;;;;;;;52.25;49.65;;;28.60;45.90;;;;;;5036850;28;20048;-84
2022/07/24 09:01:29;;;;;;;1999.90;999.90;;;28.70;46.10;;;;;;5053391;28;20108;-83
2022/07/24 09:03:55;;;;;;;1999.90;999.90;;;29.00;45.80;;;;;;5036232;28;20036;-84
2022/07/24 09:06:21;;;;;;;1999.90;999.90;;;29.30;45.40;;;;;;5053936;28;20052;-84
2022/07/24 09:08:59;;;;;;;63.67;60.42;;;29.40;42.20;;;;;;5053530;28;20052;-81
2022/07/24 09:11:25;;;;;;;1999.90;999.90;;;29.40;42.40;;;;;;5052605;28;20025;-84
2022/07/24 09:16:36;;;;;;;1999.90;999.90;;;30.00;41.90;;;;;;5055807;28;20033;-84
2022/07/24 09:19:07;;;;;;;54.45;51.75;;;30.20;41.50;;;;;;5052297;28;20024;-84
2022/07/24 09:21:37;;;;;;;547.75;295.35;;;30.10;39.80;;;;;;5053491;28;20029;-84
2022/07/24 09:24:16;;;;;;;1999.90;999.90;;;30.00;40.80;;;;;;5053321;28;20025;-84
2022/07/24 09:26:53;;;;;;;1999.90;999.90;;;30.20;40.20;;;;;;5052394;28;20099;-84
2022/07/24 09:29:20;;;;;;;1999.90;999.90;;;30.50;39.50;;;;;;5053461;28;20025;-84
2022/07/24 09:32:00;;;;;;;1999.90;999.90;;;30.60;39.20;;;;;;5035242;28;20116;-84
2022/07/24 09:34:28;;;;;;;541.60;289.48;;;30.70;38.50;;;;;;5052256;28;20028;-85
2022/07/24 09:37:01;;;;;;;53.50;50.50;;;30.70;38.30;;;;;;5051383;28;20047;-84
2022/07/24 09:39:32;;;;;;;55.28;52.17;;;30.50;38.60;;;;;;5036906;28;20033;-84
2022/07/24 09:41:58;;;;;;;62.40;59.13;;;30.60;38.50;;;;;;5031445;28;20030;-84
2022/07/24 09:44:25;;;;;;;1999.90;999.90;;;30.60;38.60;;;;;;5044192;28;20025;-83
2022/07/24 09:46:58;;;;;;;1999.90;999.90;;;30.80;38.60;;;;;;5034773;28;20045;-84
2022/07/24 09:49:24;;;;;;;1999.90;999.90;;;31.00;38.50;;;;;;5051893;28;20483;-84
2022/07/24 09:52:05;;;;;;;1999.90;999.90;;;31.10;37.80;;;;;;5052435;28;20029;-84
2022/07/24 09:54:34;;;;;;;1999.90;999.90;;;31.10;37.70;;;;;;5053220;28;20056;-84
2022/07/24 09:57:25;;;;;;;1999.90;999.90;;;31.20;36.80;;;;;;5035869;28;20029;-84
2022/07/24 09:59:59;;;;;;;1999.90;999.90;;;31.00;36.70;;;;;;5053252;28;20040;-84
2022/07/24 10:02:27;;;;;;;1999.90;999.90;;;31.00;36.50;;;;;;5050914;28;20040;-84
2022/07/24 10:04:53;;;;;;;1999.90;999.90;;;31.00;35.90;;;;;;5052558;28;20056;-85
2022/07/24 10:07:20;;;;;;;1999.90;999.90;;;31.10;36.40;;;;;;5052424;28;20045;-84
2022/07/24 10:09:49;;;;;;;1999.90;999.90;;;31.40;36.30;;;;;;5035077;28;20025;-85
2022/07/24 10:12:20;;;;;;;1999.90;999.90;;;31.70;36.30;;;;;;5051379;28;20033;-85
2022/07/24 10:14:50;;;;;;;1999.90;999.90;;;31.90;35.70;;;;;;5052325;28;20033;-85
2022/07/24 10:17:16;;;;;;;1999.90;999.90;;;32.30;34.30;;;;;;5051020;28;20036;-85
2022/07/24 10:19:47;;;;;;;1999.90;999.90;;;32.50;34.20;;;;;;5052567;28;20025;-85
2022/07/24 10:22:14;;;;;;;1999.90;999.90;;;32.70;33.40;;;;;;5052367;28;20025;-84
2022/07/24 10:24:57;;;;;;;1999.90;999.90;;;32.60;32.70;;;;;;5052647;28;20842;-85
2022/07/24 10:27:33;;;;;;;1999.90;999.90;;;32.40;32.80;;;;;;5051205;28;20044;-84
2022/07/24 10:30:02;;;;;;;1999.90;999.90;;;32.50;33.50;;;;;;5052371;28;20032;-85
2022/07/24 10:32:29;;;;;;;1999.90;999.90;;;32.70;33.50;;;;;;5050380;28;20037;-85
2022/07/24 10:35:21;;;;;;;1999.90;999.90;;;32.90;32.90;;;;;;5051087;28;20025;-85
2022/07/24 10:38:11;;;;;;;1999.90;999.90;;;33.10;32.60;;;;;;5049245;28;20041;-85
2022/07/24 10:40:44;;;;;;;1999.90;999.90;;;33.20;32.60;;;;;;5031903;28;20037;-85
2022/07/24 10:43:12;;;;;;;1999.90;999.90;;;33.40;31.30;;;;;;5015552;28;20502;-85
2022/07/24 10:45:45;;;;;;;1999.90;999.90;;;33.30;31.00;;;;;;5029966;28;20422;-85
2022/07/24 10:48:39;;;;;;;1999.90;999.90;;;33.40;30.60;;;;;;5030845;28;20033;-85
2022/07/24 10:51:13;;;;;;;1999.90;999.90;;;33.40;31.40;;;;;;5029574;28;20030;-85
2022/07/24 10:53:58;;;;;;;1999.90;999.90;;;33.40;31.20;;;;;;5031234;28;20040;-85
2022/07/24 10:56:34;;;;;;;1999.90;999.90;;;33.50;30.60;;;;;;5030668;28;20025;-85
2022/07/24 10:59:35;;;;;;;1999.90;999.90;;;32.80;30.80;;;;;;5031912;28;20506;-85
2022/07/24 11:02:25;;;;;;;1999.90;999.90;;;32.60;31.80;;;;;;5031405;28;20416;-84
2022/07/24 11:05:30;;;;;;;1999.90;999.90;;;32.60;31.10;;;;;;5031530;28;20044;-85
2022/07/24 11:08:15;;;;;;;1999.90;999.90;;;32.40;32.20;;;;;;5031994;28;20045;-85
2022/07/24 11:10:51;;;;;;;1999.90;999.90;;;32.60;30.60;;;;;;5031750;28;20033;-85
2022/07/24 11:13:33;;;;;;;1999.90;999.90;;;32.80;31.90;;;;;;5031738;28;20029;-85
2022/07/24 11:16:11;;;;;;;1999.90;999.90;;;33.20;31.20;;;;;;5031072;28;20040;-85
2022/07/24 11:18:37;;;;;;;1999.90;999.90;;;33.40;31.40;;;;;;5031671;28;20062;-84
2022/07/24 11:21:04;;;;;;;1999.90;999.90;;;33.50;30.20;;;;;;5029733;28;20490;-84
2022/07/24 11:23:30;;;;;;;1999.90;999.90;;;33.70;29.70;;;;;;5031652;28;20041;-84
2022/07/24 11:26:30;;;;;;;1999.90;999.90;;;33.70;29.90;;;;;;5030199;28;20037;-84
2022/07/24 11:29:15;;;;;;;1999.90;999.90;;;33.80;29.50;;;;;;5031365;28;20032;-84
2022/07/24 11:31:48;;;;;;;1999.90;999.90;;;33.30;30.00;;;;;;5045962;28;20053;-84
2022/07/24 11:34:14;;;;;;;1999.90;999.90;;;33.40;30.20;;;;;;5031460;28;20085;-84
2022/07/24 11:36:44;;;;;;;1999.90;999.90;;;33.60;29.40;;;;;;5030278;28;20038;-84
2022/07/24 11:39:10;;;;;;;1999.90;999.90;;;33.80;29.40;;;;;;5042059;28;20029;-84
2022/07/24 11:41:49;;;;;;;1999.90;999.90;;;34.10;29.20;;;;;;5050920;28;20475;-84
2022/07/24 11:44:24;;;;;;;1999.90;999.90;;;34.10;30.00;;;;;;5040812;28;20026;-84
2022/07/24 11:46:50;;;;;;;1999.90;999.90;;;33.80;29.50;;;;;;5028947;28;20041;-84
2022/07/24 11:49:16;;;;;;;1999.90;999.90;;;33.50;30.00;;;;;;5030855;28;20033;-84
2022/07/24 11:51:43;;;;;;;1999.90;999.90;;;33.70;29.80;;;;;;5031156;28;20033;-84
2022/07/24 11:54:10;;;;;;;1999.90;999.90;;;33.90;30.00;;;;;;5031179;28;20028;-84
2022/07/24 11:56:36;;;;;;;1999.90;999.90;;;34.10;29.30;;;;;;5029971;28;20025;-84
2022/07/24 11:59:03;;;;;;;1999.90;999.90;;;34.20;29.00;;;;;;5029817;28;20041;-84
2022/07/24 12:01:29;;;;;;;1999.90;999.90;;;34.40;28.40;;;;;;5029195;28;20049;-84
2022/07/24 12:03:59;;;;;;;1999.90;999.90;;;34.60;27.90;;;;;;5029842;28;20463;-84
2022/07/24 12:06:26;;;;;;;1999.90;999.90;;;34.30;28.20;;;;;;5035000;28;20056;-84
2022/07/24 12:09:06;;;;;;;1999.90;999.90;;;34.40;28.40;;;;;;5035320;28;20379;-84
2022/07/24 12:11:34;;;;;;;1999.90;999.90;;;34.60;28.10;;;;;;5034682;28;20727;-84
2022/07/24 12:14:01;;;;;;;1999.90;999.90;;;34.70;27.60;;;;;;5034872;28;20475;-84
2022/07/24 12:16:30;;;;;;;1999.90;999.90;;;34.30;27.90;;;;;;5035463;28;20044;-84
2022/07/24 12:19:32;;;;;;;1999.90;999.90;;;34.30;28.70;;;;;;5034528;28;20033;-84
2022/07/24 12:21:58;;;;;;;1999.90;999.90;;;34.60;28.10;;;;;;4996186;28;20057;-84
2022/07/24 12:24:24;;;;;;;1999.90;999.90;;;34.80;28.10;;;;;;5013799;28;20095;-83
2022/07/24 12:26:57;;;;;;;1999.90;999.90;;;35.10;27.70;;;;;;5012421;28;20050;-84
2022/07/24 12:29:24;;;;;;;1999.90;999.90;;;35.10;28.00;;;;;;5012530;28;20049;-83